createdAt,value
2023-01-02T00:01:44.442Z,25.50
2023-01-02T00:06:46.301Z,25.58
2023-01-02T00:11:48.155Z,25.50
2023-01-02T00:16:52.170Z,23.73
2023-01-02T00:21:54.100Z,36.53
2023-01-02T00:26:55.982Z,24.67
2023-01-02T00:31:57.969Z,19.98
2023-01-02T00:37:00.231Z,22.25
2023-01-02T00:42:02.932Z,26.23
2023-01-02T00:47:04.845Z,24.38
2023-01-02T00:52:06.819Z,30.10
2023-01-02T00:57:08.792Z,27.55
2023-01-02T01:02:10.832Z,32.88
2023-01-02T01:07:12.857Z,30.05
2023-01-02T01:12:14.731Z,34.70
2023-01-02T01:17:16.590Z,28.20
2023-01-02T01:22:18.543Z,24.85
2023-01-02T01:27:20.883Z,24.67
2023-01-02T01:32:22.830Z,33.90
2023-01-02T01:37:24.750Z,22.77
2023-01-02T01:42:34.962Z,20.98
2023-01-02T01:47:49.761Z,26.02
2023-01-02T01:53:03.329Z,23.88
2023-01-02T02:03:14.512Z,20.83
2023-01-02T02:08:44.187Z,22.63
2023-01-02T02:13:46.856Z,24.08
2023-01-02T02:18:51.710Z,20.58
2023-01-02T02:24:17.482Z,24.33
2023-01-02T02:30:02.949Z,19.98
2023-01-02T02:35:14.423Z,20.77
2023-01-02T02:40:24.536Z,16.65
2023-01-02T02:45:51.058Z,19.42
2023-01-02T02:51:07.291Z,20.13
2023-01-02T02:56:11.989Z,18.80
2023-01-02T03:01:16.264Z,16.98
2023-01-02T03:06:18.257Z,19.70
2023-01-02T03:11:26.686Z,17.40
2023-01-02T03:16:30.709Z,21.13
2023-01-02T03:21:35.384Z,19.88
2023-01-02T03:26:40.839Z,21.88
2023-01-02T03:31:46.622Z,21.02
2023-01-02T03:36:53.020Z,20.63
2023-01-02T03:42:16.904Z,19.30
2023-01-02T03:47:43.356Z,19.45
2023-01-02T03:52:45.558Z,17.27
2023-01-02T03:58:28.525Z,17.83
2023-01-02T04:03:49.896Z,18.08
2023-01-02T04:09:00.383Z,20.45
2023-01-02T04:14:10.426Z,18.13
2023-01-02T04:19:28.980Z,18.05
2023-01-02T04:24:35.574Z,18.20
2023-01-02T04:29:37.536Z,18.58
2023-01-02T04:34:42.142Z,19.52
2023-01-02T04:39:44.238Z,19.10
2023-01-02T04:44:46.099Z,21.48
2023-01-02T04:49:47.928Z,51.67
2023-01-02T04:54:49.859Z,25.65
2023-01-02T04:59:51.754Z,21.77
2023-01-02T05:04:53.834Z,18.67
2023-01-02T05:09:55.737Z,20.10
2023-01-02T05:14:57.605Z,19.90
2023-01-02T05:19:59.451Z,21.65
2023-01-02T05:25:01.322Z,16.38
2023-01-02T05:30:04.133Z,31.60
2023-01-02T05:35:06.493Z,26.73
2023-01-02T05:40:09.495Z,21.42
2023-01-02T05:45:11.749Z,22.52
2023-01-02T05:50:13.646Z,24.80
2023-01-02T05:55:15.605Z,26.83
2023-01-02T06:00:17.760Z,20.42
2023-01-02T06:05:19.756Z,22.75
2023-01-02T06:10:21.605Z,19.55
2023-01-02T06:15:23.569Z,24.00
2023-01-02T06:20:25.445Z,55.83
2023-01-02T06:25:27.366Z,23.25
2023-01-02T06:30:29.233Z,20.10
2023-01-02T06:35:31.430Z,18.65
2023-01-02T06:40:33.381Z,20.48
2023-01-02T06:45:35.598Z,25.23
2023-01-02T06:50:37.528Z,21.80
2023-01-02T06:55:39.434Z,24.15
2023-01-02T07:00:41.779Z,23.23
2023-01-02T07:05:45.240Z,26.88
2023-01-02T07:10:52.656Z,23.30
2023-01-02T07:15:55.002Z,26.85
2023-01-02T07:20:56.911Z,26.42
2023-01-02T07:26:00.632Z,22.65
2023-01-02T07:36:08.440Z,24.55
2023-01-02T07:41:19.628Z,26.08
2023-01-02T07:46:21.862Z,20.95
2023-01-02T07:51:27.453Z,24.95
2023-01-02T07:56:32.808Z,27.83
2023-01-02T08:01:34.812Z,25.17
2023-01-02T08:06:40.755Z,27.70
2023-01-02T08:11:42.658Z,25.63
2023-01-02T08:16:44.574Z,29.13
2023-01-02T08:21:46.440Z,31.77
2023-01-02T08:26:49.059Z,28.60
2023-01-02T08:31:50.887Z,29.63
2023-01-02T08:36:52.729Z,30.80
2023-01-02T08:41:54.869Z,34.13
2023-01-02T08:46:57.157Z,33.55
2023-01-02T08:51:59.075Z,27.63
2023-01-02T08:57:01.173Z,31.15
2023-01-02T09:02:03.162Z,24.20
2023-01-02T09:07:05.395Z,24.40
2023-01-02T09:12:07.351Z,26.98
2023-01-02T09:17:10.007Z,31.13
2023-01-02T09:22:11.919Z,23.83
2023-01-02T09:27:14.177Z,28.10
2023-01-02T09:32:16.136Z,23.77
2023-01-02T09:37:18.096Z,30.92
2023-01-02T09:42:20.341Z,29.45
2023-01-02T09:47:29.571Z,31.75
2023-01-02T09:52:36.871Z,27.48
2023-01-02T09:58:03.158Z,27.27
2023-01-02T10:03:25.699Z,24.55
2023-01-02T10:08:54.932Z,26.73
2023-01-02T10:14:20.658Z,21.05
2023-01-02T10:19:31.066Z,23.30
2023-01-02T10:24:51.089Z,25.38
2023-01-02T10:30:19.288Z,28.42
2023-01-02T10:35:47.653Z,23.70
2023-01-02T10:40:51.055Z,24.52
2023-01-02T10:45:52.958Z,22.08
2023-01-02T10:51:00.979Z,29.70
2023-01-02T10:56:05.718Z,24.52
2023-01-02T11:01:19.834Z,22.77
2023-01-02T11:06:31.055Z,32.53
2023-01-02T11:11:34.668Z,36.17
2023-01-02T11:16:41.838Z,21.10
2023-01-02T11:21:43.984Z,23.23
2023-01-02T11:26:49.317Z,23.70
2023-01-02T11:32:00.081Z,31.83
2023-01-02T11:37:12.483Z,25.02
2023-01-02T11:42:57.780Z,29.92
2023-01-02T11:48:05.364Z,24.67
2023-01-02T11:53:13.472Z,26.10
2023-01-02T11:58:34.616Z,23.83
2023-01-02T12:03:36.632Z,21.65
2023-01-02T12:09:14.554Z,39.95
2023-01-02T12:14:36.765Z,22.15
2023-01-02T12:19:50.764Z,32.55
2023-01-02T12:24:58.748Z,24.45
2023-01-02T12:30:04.496Z,25.20
2023-01-02T12:35:35.916Z,40.47
2023-01-02T12:41:05.085Z,22.05
2023-01-02T12:46:31.348Z,23.55
2023-01-02T12:51:49.715Z,36.33
2023-01-02T12:57:21.862Z,27.38
2023-01-02T13:02:45.856Z,33.33
2023-01-02T13:07:55.873Z,25.90
2023-01-02T13:13:00.653Z,28.92
2023-01-02T13:18:02.722Z,31.02
2023-01-02T13:23:29.581Z,34.47
2023-01-02T13:28:31.807Z,28.60
2023-01-02T13:33:43.743Z,34.65
2023-01-02T13:38:49.211Z,26.60
2023-01-02T13:44:01.323Z,20.13
2023-01-02T13:49:09.771Z,35.72
2023-01-02T13:54:18.076Z,32.22
2023-01-02T13:59:42.981Z,30.08
2023-01-02T14:04:48.468Z,26.55
2023-01-02T14:10:09.112Z,25.50
2023-01-02T14:15:18.181Z,22.88
2023-01-02T14:20:27.120Z,32.50
2023-01-02T14:25:31.580Z,43.47
2023-01-02T14:30:37.565Z,57.72
2023-01-02T14:35:50.150Z,44.67
2023-01-02T14:40:53.215Z,34.15
2023-01-02T14:46:04.371Z,28.38
2023-01-02T14:51:15.926Z,26.23
2023-01-02T14:56:26.570Z,29.10
2023-01-02T15:01:43.329Z,31.52
2023-01-02T15:06:50.053Z,33.53
2023-01-02T15:12:13.221Z,32.38
2023-01-02T15:17:21.605Z,42.67
2023-01-02T15:22:27.178Z,34.63
2023-01-02T15:27:31.827Z,39.60
2023-01-02T15:32:34.421Z,39.90
2023-01-02T15:37:45.661Z,28.80
2023-01-02T15:43:07.228Z,38.35
2023-01-02T15:48:09.751Z,38.60
2023-01-02T15:53:29.381Z,35.47
2023-01-02T15:58:35.063Z,30.17
2023-01-02T16:04:01.944Z,41.67
2023-01-02T16:09:06.735Z,82.65
2023-01-02T16:14:20.603Z,77.65
2023-01-02T16:19:56.271Z,81.65
2023-01-02T16:25:13.368Z,63.85
2023-01-02T16:30:29.106Z,65.95
2023-01-02T16:35:37.442Z,42.38
2023-01-02T16:41:01.221Z,42.58
2023-01-02T16:46:09.036Z,36.67
2023-01-02T16:51:14.589Z,40.70
2023-01-02T16:56:17.015Z,34.35
2023-01-02T17:01:23.624Z,42.17
2023-01-02T17:06:27.423Z,74.10
2023-01-02T17:11:29.802Z,48.65
2023-01-02T17:16:31.769Z,37.58
2023-01-02T17:21:34.177Z,47.38
2023-01-02T17:26:36.357Z,33.03
2023-01-02T17:31:38.633Z,33.13
2023-01-02T17:36:40.695Z,46.40
2023-01-02T17:41:42.730Z,41.30
2023-01-02T17:52:08.712Z,34.53
2023-01-02T17:57:11.971Z,39.20
2023-01-02T18:02:18.650Z,35.72
2023-01-02T18:07:20.696Z,41.25
2023-01-02T18:12:26.111Z,41.90
2023-01-02T18:17:30.487Z,37.67
2023-01-02T18:22:32.593Z,41.15
2023-01-02T18:27:35.572Z,34.55
2023-01-02T18:32:39.904Z,43.37
2023-01-02T18:37:42.689Z,41.05
2023-01-02T18:42:47.707Z,40.38
2023-01-02T18:47:56.894Z,67.22
2023-01-02T18:52:59.144Z,133.05
2023-01-02T18:58:22.843Z,54.72
2023-01-02T19:03:28.271Z,39.00
2023-01-02T19:08:37.512Z,41.88
2023-01-02T19:13:39.415Z,41.00
2023-01-02T19:18:50.107Z,39.53
2023-01-02T19:23:56.550Z,54.17
2023-01-02T19:29:09.966Z,115.28
2023-01-02T19:34:36.627Z,45.35
2023-01-02T19:39:49.886Z,45.78
2023-01-02T19:44:55.857Z,35.73
2023-01-02T19:49:58.539Z,30.15
2023-01-02T19:55:00.459Z,30.52
2023-01-02T20:00:03.634Z,36.08
2023-01-02T20:05:21.119Z,31.45
2023-01-02T20:10:24.337Z,47.72
2023-01-02T20:15:27.467Z,45.15
2023-01-02T20:25:32.247Z,29.50
2023-01-02T20:30:34.702Z,32.33
2023-01-02T20:35:36.974Z,31.10
2023-01-02T20:40:39.317Z,30.80
2023-01-02T20:45:41.260Z,28.00
2023-01-02T20:50:43.291Z,27.00
2023-01-02T20:55:45.395Z,25.88
2023-01-02T21:00:47.373Z,31.55
2023-01-02T21:05:49.471Z,28.02
2023-01-02T21:10:51.455Z,27.05
2023-01-02T21:15:53.620Z,26.58
2023-01-02T21:21:17.709Z,28.67
2023-01-02T21:26:22.172Z,26.25
2023-01-02T21:31:24.553Z,26.75
2023-01-02T21:36:26.469Z,26.17
2023-01-02T21:41:46.943Z,30.92
2023-01-02T21:46:48.837Z,25.33
2023-01-02T21:51:50.776Z,25.33
2023-01-02T21:56:53.162Z,22.20
2023-01-02T22:01:56.569Z,24.65
2023-01-02T22:12:21.360Z,21.63
2023-01-02T22:17:23.401Z,24.52
2023-01-02T22:22:25.670Z,25.77
2023-01-02T22:27:28.056Z,24.17
2023-01-02T22:32:33.543Z,23.17
2023-01-02T22:37:35.543Z,26.70
2023-01-02T22:43:05.310Z,25.50
2023-01-02T22:48:19.875Z,23.63
2023-01-02T22:53:28.445Z,23.77
2023-01-02T22:58:30.425Z,21.38
2023-01-02T23:03:38.342Z,28.13
2023-01-02T23:08:40.574Z,25.45
2023-01-02T23:13:43.381Z,22.15
2023-01-02T23:19:03.705Z,22.80
2023-01-02T23:24:07.042Z,21.83
2023-01-02T23:29:10.286Z,22.35
2023-01-02T23:34:14.748Z,22.00
2023-01-02T23:39:20.197Z,25.77
2023-01-02T23:44:22.954Z,23.83
2023-01-02T23:49:25.484Z,21.73
2023-01-02T23:54:27.746Z,26.40
2023-01-02T23:59:29.645Z,22.45
